Time,TemperatureF,DewpointF,PressureIn,WindDirection,WindDirectionDegrees,WindSpeedMPH,WindSpeedGustMPH,Humidity,HourlyPrecipIn,Conditions,Clouds,dailyrainin,SoftwareType,DateUTC
2014-12-18 00:11:00,32.0,26.0,-100.00,SE,135,10.0,11.0,76,-99.99,,,0.00,,2014-12-18 08:11:00,
2014-12-18 00:22:00,32.0,26.0,-100.00,SE,135,10.0,11.0,76,-99.99,,,0.00,,2014-12-18 08:22:00,
2014-12-18 00:52:00,32.0,25.0,-100.00,South,180,12.0,13.0,74,-99.99,,,0.00,,2014-12-18 08:52:00,
2014-12-18 01:11:00,32.0,25.0,-100.00,South,180,12.0,13.0,75,-99.99,,,0.00,,2014-12-18 09:11:00,
2014-12-18 01:22:00,32.0,26.0,-100.00,South,180,11.0,12.0,77,-99.99,,,0.00,,2014-12-18 09:22:00,
2014-12-18 01:53:00,33.0,27.0,-100.00,South,180,10.0,11.0,79,-99.99,,,0.00,,2014-12-18 09:53:00,
2014-12-18 02:22:00,32.0,27.0,-100.00,South,180,12.0,12.0,81,-99.99,,,0.00,,2014-12-18 10:22:00,
2014-12-18 02:53:00,33.0,28.0,-100.00,SE,135,11.0,12.0,82,-99.99,,,0.00,,2014-12-18 10:53:00,
2014-12-18 03:12:00,33.0,28.0,-100.00,South,180,12.0,12.0,82,-99.99,,,0.00,,2014-12-18 11:12:00,
2014-12-18 03:22:00,33.0,28.0,-100.00,South,180,11.0,12.0,83,-99.99,,,0.00,,2014-12-18 11:22:00,
2014-12-18 03:42:00,33.0,28.0,-100.00,SE,135,11.0,12.0,83,-99.99,,,0.00,,2014-12-18 11:42:00,
2014-12-18 03:52:00,32.0,28.0,-100.00,South,180,11.0,11.0,84,-99.99,,,0.00,,2014-12-18 11:52:00,
2014-12-18 04:12:00,32.0,28.0,-100.00,SE,135,9.0,10.0,84,-99.99,,,0.00,,2014-12-18 12:12:00,
2014-12-18 04:22:00,33.0,28.0,-100.00,South,180,12.0,13.0,82,-99.99,,,0.00,,2014-12-18 12:22:00,
2014-12-18 04:42:00,33.0,27.0,-100.00,SE,135,11.0,12.0,78,-99.99,,,0.00,,2014-12-18 12:42:00,
2014-12-18 04:52:00,33.0,27.0,-100.00,SE,135,11.0,12.0,78,-99.99,,,0.00,,2014-12-18 12:52:00,
2014-12-18 05:12:00,33.0,27.0,-100.00,South,180,11.0,12.0,77,-99.99,,,0.00,,2014-12-18 13:12:00,
2014-12-18 05:22:00,33.0,26.0,-100.00,South,180,12.0,12.0,77,-99.99,,,0.00,,2014-12-18 13:22:00,
2014-12-18 05:42:00,33.0,26.0,-100.00,South,180,11.0,12.0,77,-99.99,,,0.00,,2014-12-18 13:42:00,
2014-12-18 05:52:00,33.0,27.0,-100.00,South,180,11.0,12.0,78,-99.99,,,0.00,,2014-12-18 13:52:00,
2014-12-18 06:12:00,33.0,27.0,-100.00,SE,135,12.0,14.0,79,-99.99,,,0.00,,2014-12-18 14:12:00,
2014-12-18 06:22:00,33.0,27.0,-100.00,SE,135,11.0,12.0,79,-99.99,,,0.00,,2014-12-18 14:22:00,
2014-12-18 06:52:00,33.0,26.0,-100.00,SE,135,11.0,12.0,76,-99.99,,,0.00,,2014-12-18 14:52:00,
2014-12-18 07:11:00,33.0,27.0,-100.00,SE,135,12.0,12.0,76,-99.99,,,0.00,,2014-12-18 15:11:00,
2014-12-18 07:22:00,34.0,27.0,-100.00,South,180,14.0,16.0,76,-99.99,,,0.00,,2014-12-18 15:22:00,
2014-12-18 07:54:00,34.0,27.0,-100.00,SE,135,14.0,15.0,73,-99.99,,,0.00,,2014-12-18 15:54:00,
2014-12-18 08:12:00,34.0,27.0,-100.00,SE,135,12.0,12.0,73,-99.99,,,0.00,,2014-12-18 16:12:00,
2014-12-18 08:23:00,35.0,27.0,-100.00,SE,135,12.0,13.0,73,-99.99,,,0.00,,2014-12-18 16:23:00,
2014-12-18 08:53:00,35.0,27.0,-100.00,SE,135,14.0,16.0,73,-99.99,,,0.00,,2014-12-18 16:53:00,
2014-12-18 09:12:00,35.0,27.0,-100.00,South,180,12.0,14.0,73,-99.99,,,0.00,,2014-12-18 17:12:00,
2014-12-18 09:22:00,35.0,28.0,-100.00,SE,135,12.0,14.0,74,-99.99,,,0.00,,2014-12-18 17:22:00,
2014-12-18 09:43:00,35.0,28.0,-100.00,South,180,12.0,13.0,74,-99.99,,,0.00,,2014-12-18 17:43:00,
2014-12-18 09:52:00,36.0,28.0,-100.00,South,180,15.0,16.0,73,-99.99,,,0.00,,2014-12-18 17:52:00,
2014-12-18 10:12:00,36.0,28.0,-100.00,South,180,13.0,14.0,71,-99.99,,,0.00,,2014-12-18 18:12:00,
2014-12-18 10:22:00,36.0,28.0,-100.00,SE,135,14.0,16.0,71,-99.99,,,0.00,,2014-12-18 18:22:00,
2014-12-18 10:43:00,36.0,28.0,-100.00,SE,135,14.0,16.0,71,-99.99,,,0.00,,2014-12-18 18:43:00,
2014-12-18 10:53:00,37.0,28.0,-100.00,SE,135,14.0,16.0,69,-99.99,,,0.00,,2014-12-18 18:53:00,
2014-12-18 11:12:00,38.0,28.0,-100.00,SE,135,14.0,17.0,67,-99.99,,,0.00,,2014-12-18 19:12:00,
2014-12-18 11:22:00,38.0,28.0,-100.00,South,180,16.0,17.0,66,-99.99,,,0.00,,2014-12-18 19:22:00,
2014-12-18 11:42:00,40.0,28.0,-100.00,SE,135,16.0,17.0,64,-99.99,,,0.00,,2014-12-18 19:42:00,
2014-12-18 11:52:00,40.0,28.0,-100.00,South,180,15.0,17.0,62,-99.99,,,0.00,,2014-12-18 19:52:00,
2014-12-18 12:12:00,40.0,28.0,-100.00,South,180,17.0,18.0,60,-99.99,,,0.00,,2014-12-18 20:12:00,
2014-12-18 12:22:00,41.0,28.0,-100.00,South,180,21.0,22.0,60,-99.99,,,0.00,,2014-12-18 20:22:00,
2014-12-18 12:52:00,42.0,29.0,-100.00,South,180,16.0,17.0,60,-99.99,,,0.00,,2014-12-18 20:52:00,
2014-12-18 13:12:00,41.0,29.0,-100.00,South,180,12.0,14.0,61,-99.99,,,0.00,,2014-12-18 21:12:00,
2014-12-18 13:22:00,41.0,29.0,-100.00,South,180,17.0,18.0,61,-99.99,,,0.00,,2014-12-18 21:22:00,
2014-12-18 13:43:00,42.0,29.0,-100.00,South,180,16.0,17.0,60,-99.99,,,0.00,,2014-12-18 21:43:00,
2014-12-18 13:54:00,42.0,29.0,-100.00,SE,135,14.0,16.0,59,-99.99,,,0.00,,2014-12-18 21:54:00,
2014-12-18 14:13:00,42.0,29.0,-100.00,SE,135,14.0,15.0,59,-99.99,,,0.00,,2014-12-18 22:13:00,
2014-12-18 14:24:00,42.0,29.0,-100.00,SE,135,13.0,14.0,59,-99.99,,,0.00,,2014-12-18 22:24:00,
2014-12-18 14:42:00,42.0,29.0,-100.00,SE,135,12.0,14.0,60,-99.99,,,0.00,,2014-12-18 22:42:00,
2014-12-18 14:53:00,42.0,29.0,-100.00,SE,135,14.0,15.0,58,-99.99,,,0.00,,2014-12-18 22:53:00,
2014-12-18 15:12:00,42.0,29.0,-100.00,SE,135,12.0,14.0,58,-99.99,,,0.00,,2014-12-18 23:12:00,
2014-12-18 15:52:00,42.0,29.0,-100.00,SE,135,9.0,9.0,59,-99.99,,,0.00,,2014-12-18 23:52:00,
2014-12-18 16:12:00,42.0,29.0,-100.00,SE,135,10.0,11.0,59,-99.99,,,0.00,,2014-12-19 00:12:00,
2014-12-18 16:22:00,42.0,29.0,-100.00,SE,135,15.0,16.0,59,-99.99,,,0.00,,2014-12-19 00:22:00,
2014-12-18 16:42:00,43.0,28.0,-100.00,SE,135,15.0,16.0,57,-99.99,,,0.00,,2014-12-19 00:42:00,
2014-12-18 16:52:00,43.0,29.0,-100.00,SE,135,14.0,17.0,57,-99.99,,,0.00,,2014-12-19 00:52:00,
2014-12-18 17:12:00,43.0,28.0,-100.00,SE,135,16.0,19.0,55,-99.99,,,0.00,,2014-12-19 01:12:00,
2014-12-18 17:22:00,43.0,28.0,-100.00,SE,135,14.0,16.0,55,-99.99,,,0.00,,2014-12-19 01:22:00,
2014-12-18 17:42:00,43.0,27.0,-100.00,SE,135,13.0,16.0,54,-99.99,,,0.00,,2014-12-19 01:42:00,
2014-12-18 17:52:00,42.0,28.0,-100.00,SE,135,14.0,15.0,56,-99.99,,,0.00,,2014-12-19 01:52:00,
2014-12-18 18:11:00,42.0,28.0,-100.00,SE,135,16.0,16.0,57,-99.99,,,0.00,,2014-12-19 02:11:00,
2014-12-18 18:22:00,42.0,28.0,-100.00,SE,135,17.0,19.0,57,-99.99,,,0.00,,2014-12-19 02:22:00,